Time;durP1;ratioP1;P1;durP2;ratioP2;P2;SDS_P1;SDS_P2;PMS_P1;PMS_P2;Temp;Humidity;BMP_temperature;BMP_pressure;BME280_temperature;BME280_humidity;BME280_pressure;Samples;Min_cycle;Max_cycle;Signal;HPM_P1;HPM_P2
2022/12/22 03:26:59;;;;;;;3.53;2.67;;;12.40;99.90;;;;;;5012716;28;20130;-77
2022/12/22 03:29:25;;;;;;;7.57;2.85;;;12.30;99.90;;;;;;5015841;28;20096;-77
2022/12/22 03:31:51;;;;;;;4.18;2.70;;;12.20;99.90;;;;;;5007871;28;20413;-77
2022/12/22 03:34:17;;;;;;;3.70;2.72;;;12.10;99.90;;;;;;5016107;28;20041;-76
2022/12/22 03:36:43;;;;;;;5.53;2.63;;;11.90;99.90;;;;;;4996881;28;20109;-77
2022/12/22 03:39:08;;;;;;;5.00;2.90;;;11.80;99.90;;;;;;5017188;28;20022;-77
2022/12/22 03:47:03;;;;;;;5.32;2.85;;;11.60;99.90;;;;;;5012228;28;20525;-77
2022/12/22 03:49:29;;;;;;;5.15;3.38;;;11.50;99.90;;;;;;4988545;28;20034;-77
2022/12/22 03:51:54;;;;;;;7.45;3.35;;;11.40;99.90;;;;;;5012939;28;20072;-77
2022/12/22 03:54:23;;;;;;;5.13;3.00;;;11.30;99.90;;;;;;5006640;28;20022;-77
2022/12/22 03:56:49;;;;;;;4.20;3.05;;;11.20;99.90;;;;;;4994304;28;20368;-77
2022/12/22 03:59:16;;;;;;;4.65;3.70;;;11.10;99.90;;;;;;4995079;28;20057;-77
2022/12/22 04:01:44;;;;;;;7.20;3.60;;;10.90;99.90;;;;;;5010805;28;20129;-77
2022/12/22 04:04:12;;;;;;;7.82;3.60;;;11.00;99.90;;;;;;5012256;28;20100;-77
2022/12/22 04:06:38;;;;;;;4.10;2.90;;;11.00;99.90;;;;;;5010393;28;20031;-77
2022/12/22 04:09:04;;;;;;;8.52;3.28;;;10.90;99.90;;;;;;5012545;28;20092;-77
2022/12/22 04:14:15;;;;;;;5.97;3.22;;;10.70;99.90;;;;;;5013376;28;20552;-77
2022/12/22 04:16:40;;;;;;;5.78;3.42;;;10.60;99.90;;;;;;4995456;28;20017;-77
2022/12/22 04:19:07;;;;;;;5.93;3.58;;;10.50;99.90;;;;;;4996121;28;20025;-77
2022/12/22 04:21:33;;;;;;;6.65;3.30;;;10.30;99.90;;;;;;5012680;28;20033;-77
2022/12/22 04:23:59;;;;;;;8.18;3.85;;;10.20;99.90;;;;;;4995537;28;20018;-77
2022/12/22 04:26:25;;;;;;;6.15;3.47;;;10.10;99.90;;;;;;5013583;28;20089;-78
2022/12/22 04:28:52;;;;;;;4.10;2.80;;;10.00;99.90;;;;;;4991303;28;20030;-77
2022/12/22 04:31:19;;;;;;;9.48;3.65;;;10.00;99.90;;;;;;5014780;28;20018;-77
2022/12/22 04:33:45;;;;;;;7.15;3.90;;;9.90;99.90;;;;;;5010873;28;20053;-77
2022/12/22 04:36:12;;;;;;;8.18;3.05;;;9.90;99.90;;;;;;5014716;28;20101;-77
2022/12/22 04:38:38;;;;;;;6.03;3.42;;;9.90;99.90;;;;;;5011885;28;20077;-77
2022/12/22 04:41:05;;;;;;;8.05;3.63;;;9.90;99.90;;;;;;5015599;28;20029;-77
2022/12/22 04:43:31;;;;;;;10.52;4.13;;;10.10;99.90;;;;;;4993257;28;20478;-77
2022/12/22 04:45:57;;;;;;;6.43;4.13;;;10.30;99.90;;;;;;5015620;28;20395;-77
2022/12/22 04:48:28;;;;;;;6.25;3.42;;;10.30;99.90;;;;;;5010059;28;20425;-76
2022/12/22 04:50:55;;;;;;;6.60;3.60;;;10.30;99.90;;;;;;5013131;28;20049;-76
2022/12/22 04:53:22;;;;;;;4.00;3.03;;;10.30;99.90;;;;;;4995422;28;20512;-76
2022/12/22 04:55:50;;;;;;;10.70;4.00;;;10.30;99.90;;;;;;5015749;28;20402;-77
2022/12/22 04:58:16;;;;;;;17.40;3.70;;;10.40;99.90;;;;;;4997005;28;20027;-76
2022/12/22 05:00:42;;;;;;;7.93;3.75;;;10.50;99.90;;;;;;5016206;28;20088;-77
2022/12/22 05:03:08;;;;;;;6.53;3.40;;;10.50;99.90;;;;;;5010531;28;20026;-77
2022/12/22 05:05:35;;;;;;;8.77;3.70;;;10.40;99.90;;;;;;5012129;28;20025;-77
2022/12/22 05:08:02;;;;;;;7.82;4.00;;;10.40;99.90;;;;;;5009957;28;20030;-77
2022/12/22 05:10:29;;;;;;;6.95;3.35;;;10.30;99.90;;;;;;4998738;28;20565;-77
2022/12/22 05:12:55;;;;;;;7.03;3.35;;;10.30;99.90;;;;;;5012618;28;20104;-77
2022/12/22 05:15:29;;;;;;;4.88;3.35;;;10.20;99.90;;;;;;5014689;28;20022;-77
2022/12/22 05:17:56;;;;;;;5.57;3.55;;;10.20;99.90;;;;;;5013921;28;20026;-77
2022/12/22 05:20:23;;;;;;;8.30;3.38;;;10.20;99.90;;;;;;4998696;28;20029;-77
2022/12/22 05:22:49;;;;;;;8.35;3.42;;;10.20;99.90;;;;;;5015332;28;20041;-77
2022/12/22 05:25:16;;;;;;;4.68;3.40;;;10.10;99.90;;;;;;4994255;28;20129;-77
2022/12/22 05:27:46;;;;;;;4.72;3.65;;;10.00;99.90;;;;;;4976944;28;20034;-77
2022/12/22 05:30:14;;;;;;;6.20;3.80;;;9.90;99.90;;;;;;5000056;28;20034;-76
2022/12/22 05:32:40;;;;;;;7.32;3.30;;;9.90;99.90;;;;;;4995804;28;20406;-77
2022/12/22 05:35:06;;;;;;;7.45;3.45;;;9.90;99.90;;;;;;4996700;28;20030;-77
2022/12/22 05:37:33;;;;;;;7.68;3.63;;;9.90;99.90;;;;;;4993648;28;20034;-76
2022/12/22 05:39:59;;;;;;;5.00;3.25;;;9.90;99.90;;;;;;4998476;28;20085;-77
2022/12/22 05:42:37;;;;;;;7.25;3.30;;;9.90;99.90;;;;;;4995771;28;20050;-77
2022/12/22 05:45:02;;;;;;;7.63;3.80;;;9.80;99.90;;;;;;4998426;28;20027;-77
2022/12/22 05:47:28;;;;;;;4.35;3.42;;;9.80;99.90;;;;;;4980645;28;20034;-77
2022/12/22 05:49:54;;;;;;;4.90;3.33;;;9.80;99.90;;;;;;4992893;28;20022;-77
2022/12/22 05:52:20;;;;;;;4.13;3.30;;;9.70;99.90;;;;;;4992328;28;20030;-77
2022/12/22 05:54:45;;;;;;;6.32;3.67;;;9.70;99.90;;;;;;4981309;28;20121;-77
2022/12/22 05:57:11;;;;;;;6.20;3.40;;;9.60;99.90;;;;;;4981727;28;20023;-77
2022/12/22 05:59:37;;;;;;;6.38;3.38;;;9.70;99.90;;;;;;4977321;28;20018;-77
2022/12/22 06:02:03;;;;;;;5.07;3.30;;;9.60;99.90;;;;;;4987492;28;20080;-77
2022/12/22 06:04:29;;;;;;;7.35;4.57;;;9.50;99.90;;;;;;4996114;28;20117;-76
2022/12/22 06:06:54;;;;;;;4.95;3.45;;;9.50;99.90;;;;;;4989039;28;20081;-75
2022/12/22 06:09:20;;;;;;;8.52;3.70;;;9.40;99.90;;;;;;4997014;28;20073;-75
2022/12/22 06:11:46;;;;;;;6.95;3.88;;;9.50;99.90;;;;;;4979538;28;20042;-76
2022/12/22 06:14:12;;;;;;;9.93;3.80;;;9.60;99.90;;;;;;4997738;28;20054;-75
2022/12/22 06:16:38;;;;;;;11.70;4.28;;;9.80;99.90;;;;;;4979183;28;20117;-75
2022/12/22 06:19:03;;;;;;;7.70;3.33;;;9.90;99.90;;;;;;4981191;28;20037;-75
2022/12/22 06:21:29;;;;;;;8.60;3.70;;;10.00;99.90;;;;;;4997043;28;20025;-76
2022/12/22 06:23:55;;;;;;;10.57;3.72;;;9.90;99.90;;;;;;4998101;28;20502;-76
2022/12/22 06:26:21;;;;;;;5.05;3.20;;;9.90;99.90;;;;;;5014395;28;20143;-76
2022/12/22 06:28:47;;;;;;;5.80;4.32;;;9.80;99.90;;;;;;4994650;28;20077;-76
2022/12/22 06:31:13;;;;;;;7.57;4.55;;;9.70;99.90;;;;;;5017929;28;20024;-76
2022/12/22 06:33:39;;;;;;;12.23;4.47;;;9.50;99.90;;;;;;5010695;28;20121;-76
2022/12/22 06:36:08;;;;;;;10.32;4.13;;;9.50;99.90;;;;;;5018517;28;20049;-76
2022/12/22 06:38:34;;;;;;;6.35;4.72;;;9.30;99.90;;;;;;5011630;28;20093;-77
2022/12/22 06:41:00;;;;;;;7.65;4.30;;;9.30;99.90;;;;;;5000943;28;20025;-76
2022/12/22 06:43:26;;;;;;;11.18;3.95;;;9.20;99.90;;;;;;5008161;28;20092;-76
2022/12/22 06:45:52;;;;;;;8.88;5.28;;;9.20;99.90;;;;;;5012435;28;20025;-76
2022/12/22 06:48:18;;;;;;;17.10;10.57;;;9.10;99.90;;;;;;5010650;28;20034;-76
2022/12/22 06:50:44;;;;;;;460.17;314.20;;;9.10;99.90;;;;;;5005473;28;20033;-76
2022/12/22 06:53:11;;;;;;;24.48;13.90;;;9.00;99.90;;;;;;5010543;28;20022;-76
2022/12/22 06:55:37;;;;;;;74.43;43.17;;;9.00;99.90;;;;;;5000289;28;20057;-76
2022/12/22 06:58:04;;;;;;;42.72;23.70;;;9.00;99.90;;;;;;5012439;28;20071;-76
2022/12/22 07:00:30;;;;;;;22.92;14.55;;;8.90;99.90;;;;;;5014378;28;20108;-76
2022/12/22 07:02:55;;;;;;;254.32;148.40;;;8.80;99.90;;;;;;4999708;28;20057;-76
2022/12/22 07:05:22;;;;;;;28.98;13.55;;;8.80;99.90;;;;;;4999929;28;20032;-76
2022/12/22 07:07:49;;;;;;;49.60;28.90;;;8.70;99.90;;;;;;5014837;28;20046;-76
2022/12/22 07:10:14;;;;;;;26.98;13.43;;;8.70;99.90;;;;;;5016467;28;20032;-76
2022/12/22 07:12:41;;;;;;;71.47;42.33;;;8.70;99.90;;;;;;4997310;28;20030;-76
2022/12/22 07:15:07;;;;;;;14.57;8.70;;;8.60;99.90;;;;;;5017877;28;20482;-76
2022/12/22 07:17:33;;;;;;;10.93;5.65;;;8.60;99.90;;;;;;5014132;28;20080;-76
2022/12/22 07:19:59;;;;;;;12.63;5.88;;;8.70;99.90;;;;;;4999945;28;20025;-76
2022/12/22 07:22:25;;;;;;;13.85;7.70;;;8.70;99.90;;;;;;5015048;28;20153;-76
2022/12/22 07:24:51;;;;;;;8.93;4.00;;;8.70;99.90;;;;;;5017598;28;20046;-77
2022/12/22 07:27:17;;;;;;;8.35;5.18;;;8.70;99.90;;;;;;4996926;28;20038;-77
2022/12/22 07:29:43;;;;;;;39.05;20.50;;;8.70;99.90;;;;;;4991599;28;20031;-77
2022/12/22 07:32:09;;;;;;;146.05;64.03;;;8.70;99.90;;;;;;4996921;28;20042;-77
2022/12/22 07:34:35;;;;;;;112.93;51.05;;;8.80;99.90;;;;;;5011338;28;20025;-77
2022/12/22 07:37:00;;;;;;;229.15;131.98;;;8.80;99.90;;;;;;5013228;28;20022;-77
2022/12/22 07:39:26;;;;;;;80.05;41.78;;;8.90;99.90;;;;;;4999319;28;20390;-77
2022/12/22 07:44:36;;;;;;;91.72;49.28;;;9.00;99.90;;;;;;5014468;28;20084;-77
2022/12/22 07:47:02;;;;;;;222.13;128.80;;;9.10;99.90;;;;;;5012546;28;20030;-77
2022/12/22 07:52:12;;;;;;;62.38;37.80;;;9.00;99.90;;;;;;5011318;28;20040;-77
2022/12/22 07:54:38;;;;;;;115.07;65.50;;;9.00;99.90;;;;;;5010747;28;20022;-77
2022/12/22 07:57:04;;;;;;;27.83;13.25;;;9.10;99.90;;;;;;5010831;28;20033;-77
2022/12/22 07:59:30;;;;;;;13.02;8.98;;;9.10;99.90;;;;;;5012251;28;20053;-77
2022/12/22 08:01:55;;;;;;;15.35;8.15;;;9.10;99.90;;;;;;4997367;28;20056;-77
2022/12/22 08:04:21;;;;;;;12.70;7.85;;;9.10;99.90;;;;;;4996594;28;20032;-77
2022/12/22 08:06:47;;;;;;;16.73;8.55;;;9.10;99.90;;;;;;4996216;28;20036;-77
2022/12/22 08:09:16;;;;;;;18.90;8.77;;;9.10;99.90;;;;;;5015241;28;20033;-77
2022/12/22 08:11:42;;;;;;;31.58;17.70;;;9.10;99.90;;;;;;4996413;28;20060;-77
2022/12/22 08:14:08;;;;;;;119.13;68.10;;;9.10;99.90;;;;;;4998705;28;20058;-77
2022/12/22 08:16:34;;;;;;;114.22;63.90;;;9.20;99.90;;;;;;5014733;28;20034;-77
2022/12/22 08:19:00;;;;;;;68.75;32.92;;;9.30;99.90;;;;;;4998993;28;20026;-77
2022/12/22 08:21:26;;;;;;;13.57;9.57;;;9.40;99.90;;;;;;5015129;28;20030;-78
2022/12/22 08:23:51;;;;;;;89.22;48.65;;;9.50;99.90;;;;;;4992164;28;20033;-79
2022/12/22 08:26:24;;;;;;;278.08;131.68;;;9.60;99.90;;;;;;4998032;28;20058;-79
2022/12/22 08:29:01;;;;;;;315.83;154.63;;;9.60;99.90;;;;;;5008462;28;20034;-79
2022/12/22 08:31:29;;;;;;;338.25;131.88;;;9.70;99.90;;;;;;5004696;28;20041;-78
2022/12/22 08:33:57;;;;;;;291.77;111.82;;;9.80;99.90;;;;;;5000375;28;20028;-79
2022/12/22 08:36:24;;;;;;;234.77;91.82;;;9.90;99.90;;;;;;5016959;28;20025;-78
2022/12/22 08:38:50;;;;;;;330.17;148.45;;;10.00;99.90;;;;;;5020143;28;20022;-78
2022/12/22 08:41:48;;;;;;;277.95;118.88;;;10.10;99.90;;;;;;5019610;28;20437;-78
2022/12/22 08:44:02;;;;;;;198.20;82.70;;;10.20;99.90;;;;;;5015606;28;20029;-79
2022/12/22 08:46:28;;;;;;;551.50;311.92;;;10.30;99.90;;;;;;5019369;28;20123;-78
2022/12/22 08:48:54;;;;;;;217.13;95.57;;;10.30;99.90;;;;;;5017980;28;20485;-78
2022/12/22 08:51:20;;;;;;;58.85;28.95;;;10.40;99.90;;;;;;5017818;28;20030;-78
2022/12/22 08:53:46;;;;;;;270.20;123.18;;;10.50;99.90;;;;;;5019293;28;20073;-78
2022/12/22 08:56:11;;;;;;;492.48;268.08;;;10.60;99.90;;;;;;5001796;28;20566;-78
2022/12/22 08:58:39;;;;;;;613.33;358.20;;;10.70;99.90;;;;;;5025103;28;20029;-78
2022/12/22 09:01:04;;;;;;;108.78;56.53;;;10.80;99.90;;;;;;5015076;28;20025;-78
2022/12/22 09:03:30;;;;;;;44.38;20.15;;;10.90;99.90;;;;;;5006812;28;20022;-79
2022/12/22 09:06:00;;;;;;;24.45;11.43;;;11.00;99.90;;;;;;5016003;28;20104;-78
2022/12/22 09:08:26;;;;;;;174.33;82.37;;;11.00;99.90;;;;;;5020037;28;20022;-78
2022/12/22 09:10:52;;;;;;;300.85;138.50;;;11.10;99.90;;;;;;5018112;28;20052;-78
2022/12/22 09:13:18;;;;;;;710.53;447.35;;;11.10;99.90;;;;;;5006151;28;20072;-77
2022/12/22 09:15:44;;;;;;;162.27;80.07;;;11.00;99.90;;;;;;5014277;28;20026;-77
2022/12/22 09:18:09;;;;;;;22.65;12.38;;;11.00;99.90;;;;;;5024265;28;20025;-78
2022/12/22 09:20:35;;;;;;;80.10;41.60;;;10.90;99.90;;;;;;5004840;28;20049;-78
2022/12/22 09:23:01;;;;;;;261.33;137.05;;;10.90;99.90;;;;;;5024699;28;20037;-78
2022/12/22 09:25:27;;;;;;;39.60;19.92;;;10.90;99.90;;;;;;5024167;28;20070;-77
2022/12/22 09:27:53;;;;;;;98.15;52.30;;;11.00;99.90;;;;;;5023112;28;20056;-78
2022/12/22 09:30:19;;;;;;;57.33;29.08;;;11.00;99.90;;;;;;5021118;28;20109;-78
2022/12/22 09:32:45;;;;;;;166.52;87.05;;;11.10;99.90;;;;;;5018704;28;20026;-78
2022/12/22 09:35:11;;;;;;;100.35;48.00;;;11.20;99.90;;;;;;5021632;28;20088;-78
2022/12/22 09:37:36;;;;;;;37.60;19.02;;;11.20;99.90;;;;;;5020434;28;20474;-78
2022/12/22 09:40:03;;;;;;;90.20;47.15;;;11.30;99.90;;;;;;5025286;28;20013;-78
2022/12/22 09:42:32;;;;;;;93.72;51.90;;;11.40;99.90;;;;;;5005194;28;20026;-78
2022/12/22 09:44:58;;;;;;;45.55;25.35;;;11.40;99.90;;;;;;5024862;28;20027;-78
2022/12/22 09:47:37;;;;;;;66.18;37.55;;;11.50;99.90;;;;;;5020553;28;20446;-79
2022/12/22 09:50:07;;;;;;;27.35;16.17;;;11.60;99.90;;;;;;5020050;28;20022;-80
2022/12/22 09:52:33;;;;;;;19.48;11.80;;;11.70;99.90;;;;;;5022167;28;20030;-80
2022/12/22 09:55:00;;;;;;;17.30;10.90;;;11.70;99.90;;;;;;5000713;28;20036;-79
2022/12/22 09:57:30;;;;;;;60.33;36.33;;;11.80;99.90;;;;;;4998000;28;20034;-80
2022/12/22 10:00:11;;;;;;;55.03;33.03;;;11.90;99.90;;;;;;5025381;28;20509;-77
2022/12/22 10:03:02;;;;;;;20.50;11.45;;;11.90;99.90;;;;;;5018349;28;20022;-79
2022/12/22 10:05:50;;;;;;;31.63;17.25;;;12.00;99.90;;;;;;5001690;28;20029;-79
2022/12/22 10:08:26;;;;;;;54.47;39.45;;;12.10;99.90;;;;;;5022131;28;20037;-78
2022/12/22 10:10:53;;;;;;;28.17;19.25;;;12.10;99.90;;;;;;5011261;28;20548;-78
2022/12/22 10:13:19;;;;;;;9.38;6.38;;;12.20;99.90;;;;;;5020975;28;20089;-79
2022/12/22 10:15:46;;;;;;;7.60;4.10;;;12.30;99.90;;;;;;5026940;28;20156;-77
2022/12/22 10:18:18;;;;;;;25.77;12.98;;;12.40;99.90;;;;;;5022853;28;20116;-77
2022/12/22 10:21:04;;;;;;;15.90;8.23;;;12.50;99.90;;;;;;5021664;28;20026;-78
2022/12/22 10:23:34;;;;;;;14.73;8.50;;;12.60;99.90;;;;;;5016735;28;20047;-78
2022/12/22 10:26:11;;;;;;;10.20;7.43;;;12.70;99.90;;;;;;4990133;28;20056;-79
2022/12/22 10:28:45;;;;;;;8.65;5.72;;;12.80;99.90;;;;;;4984909;28;20035;-79
2022/12/22 10:31:27;;;;;;;13.32;5.28;;;12.80;99.90;;;;;;4998983;28;20141;-78
2022/12/22 10:34:10;;;;;;;6.13;4.35;;;12.90;99.90;;;;;;4999093;28;20058;-79
2022/12/22 10:36:37;;;;;;;7.05;4.50;;;12.90;99.90;;;;;;4997835;28;20491;-78
2022/12/22 10:39:06;;;;;;;9.48;4.32;;;13.00;99.90;;;;;;4983563;28;20018;-79
2022/12/22 10:41:38;;;;;;;13.68;5.30;;;13.00;99.90;;;;;;5002353;28;20030;-79
2022/12/22 10:44:20;;;;;;;12.60;5.88;;;13.10;99.90;;;;;;4996135;28;20018;-79
2022/12/22 10:46:50;;;;;;;9.35;4.15;;;13.10;99.90;;;;;;4998183;28;20030;-79
2022/12/22 10:49:25;;;;;;;;;;;13.20;99.90;;;;;;5006171;28;20402;-79
2022/12/22 10:52:10;;;;;;;15.05;4.78;;;13.40;99.90;;;;;;4992983;28;19910;-79
2022/12/22 10:54:36;;;;;;;10.48;4.55;;;13.50;99.90;;;;;;4970838;28;20034;-78
2022/12/22 10:57:21;;;;;;;6.82;3.95;;;13.70;99.90;;;;;;4988591;28;20490;-79
2022/12/22 11:00:00;;;;;;;6.97;3.75;;;13.90;99.90;;;;;;5003523;28;20056;-79
2022/12/22 11:02:28;;;;;;;11.77;3.95;;;14.00;99.90;;;;;;4993294;28;20034;-79
2022/12/22 11:05:02;;;;;;;13.82;3.53;;;14.10;99.90;;;;;;4999211;28;20038;-78
2022/12/22 11:07:32;;;;;;;8.13;3.92;;;14.20;99.90;;;;;;5000213;28;20022;-79
2022/12/22 11:09:58;;;;;;;8.38;3.45;;;14.20;99.90;;;;;;4979999;28;20406;-78
2022/12/22 11:12:37;;;;;;;8.10;3.75;;;14.20;99.90;;;;;;4995086;28;20034;-78
2022/12/22 11:15:21;;;;;;;9.25;3.47;;;14.20;99.90;;;;;;4994970;28;20030;-78
2022/12/22 11:18:15;;;;;;;20.33;4.63;;;14.20;99.90;;;;;;4997533;28;20030;-79
2022/12/22 11:21:17;;;;;;;9.20;3.75;;;14.30;99.90;;;;;;5000116;28;20030;-79
2022/12/22 11:23:57;;;;;;;14.82;4.15;;;14.40;99.90;;;;;;4985075;28;20041;-78
2022/12/22 11:26:35;;;;;;;13.70;4.35;;;14.40;99.90;;;;;;5015566;28;20439;-78
2022/12/22 11:29:47;;;;;;;16.17;5.47;;;14.50;99.90;;;;;;5021742;28;20026;-78
2022/12/22 11:32:37;;;;;;;9.52;4.53;;;14.60;99.90;;;;;;5011844;28;20654;-78
2022/12/22 11:35:09;;;;;;;13.20;4.88;;;14.70;99.90;;;;;;4997382;28;20029;-78
2022/12/22 11:37:55;;;;;;;11.55;3.63;;;14.70;99.90;;;;;;5014060;28;20044;-79
2022/12/22 11:40:32;;;;;;;10.00;2.72;;;14.80;99.90;;;;;;5014858;28;20022;-77
2022/12/22 11:43:18;;;;;;;4.25;2.63;;;14.90;99.90;;;;;;5015466;28;20055;-79
2022/12/22 11:45:59;;;;;;;7.45;5.90;;;15.10;99.90;;;;;;5022750;28;20402;-77
2022/12/22 11:48:40;;;;;;;;;;;15.20;99.90;;;;;;5006456;28;20026;-78
2022/12/22 11:51:35;;;;;;;7.47;2.42;;;15.30;99.90;;;;;;5003657;28;19906;-79
2022/12/22 11:54:39;;;;;;;25.40;11.85;;;15.40;99.90;;;;;;5008000;28;20034;-78
2022/12/22 11:57:26;;;;;;;97.72;53.72;;;15.50;99.90;;;;;;5004740;28;20028;-78
2022/12/22 12:00:13;;;;;;;64.05;35.92;;;15.60;99.90;;;;;;5014561;28;20405;-79
2022/12/22 12:03:08;;;;;;;13.18;7.63;;;15.70;99.90;;;;;;5012833;28;20098;-79
2022/12/22 12:05:43;;;;;;;25.17;11.70;;;15.80;99.90;;;;;;5009502;28;20041;-77
2022/12/22 12:08:45;;;;;;;9.00;4.00;;;15.80;99.90;;;;;;5015825;28;20022;-78
2022/12/22 12:11:31;;;;;;;33.38;20.65;;;15.80;99.90;;;;;;4992619;28;20038;-79
2022/12/22 12:14:22;;;;;;;9.32;4.65;;;15.70;99.90;;;;;;5016475;28;20466;-79
2022/12/22 12:17:38;;;;;;;5.30;3.75;;;15.70;99.90;;;;;;4996136;28;20027;-79
2022/12/22 12:20:14;;;;;;;19.92;12.98;;;15.90;99.90;;;;;;5018673;28;20092;-79
2022/12/22 12:23:03;;;;;;;5.72;2.08;;;16.00;99.90;;;;;;5002008;28;20453;-78
2022/12/22 12:25:44;;;;;;;6.90;2.45;;;16.10;99.90;;;;;;5005145;28;20148;-78
2022/12/22 12:28:39;;;;;;;7.45;2.55;;;16.10;99.90;;;;;;4988511;28;20478;-79
2022/12/22 12:31:07;;;;;;;5.43;2.05;;;16.10;99.90;;;;;;4990576;28;20070;-79
2022/12/22 12:33:35;;;;;;;9.45;2.63;;;16.10;99.90;;;;;;4996630;28;20022;-79
2022/12/22 12:36:04;;;;;;;4.18;1.90;;;16.10;99.90;;;;;;5000727;28;20077;-79
2022/12/22 12:39:08;;;;;;;4.68;2.15;;;16.10;99.90;;;;;;4997615;28;20033;-79
2022/12/22 12:41:56;;;;;;;6.00;2.50;;;16.10;99.90;;;;;;4999200;28;20042;-78
2022/12/22 12:44:36;;;;;;;4.03;2.15;;;16.20;99.90;;;;;;5004354;28;20108;-76
2022/12/22 12:47:27;;;;;;;3.03;1.92;;;16.20;99.90;;;;;;4997785;28;20033;-78
2022/12/22 12:50:00;;;;;;;7.05;2.25;;;16.30;99.90;;;;;;4998825;28;20453;-78
2022/12/22 12:52:38;;;;;;;4.47;1.80;;;16.40;99.90;;;;;;4999539;28;20044;-77
2022/12/22 12:55:24;;;;;;;4.80;1.85;;;16.50;99.90;;;;;;5001991;28;20379;-78
2022/12/22 12:57:51;;;;;;;3.00;1.77;;;16.60;99.90;;;;;;4993204;28;20105;-79
2022/12/22 13:00:32;;;;;;;5.68;2.22;;;16.60;99.90;;;;;;4984998;28;20027;-79
2022/12/22 13:03:24;;;;;;;2.83;1.55;;;16.70;99.90;;;;;;5002868;28;20081;-78
2022/12/22 13:05:55;;;;;;;6.35;1.63;;;16.80;99.90;;;;;;4996294;28;20097;-80
2022/12/22 13:08:26;;;;;;;4.03;1.75;;;16.90;99.90;;;;;;4999809;28;20029;-78
2022/12/22 13:10:55;;;;;;;4.78;2.00;;;16.90;99.90;;;;;;5001896;28;20018;-78
2022/12/22 13:13:21;;;;;;;3.58;1.75;;;17.00;99.90;;;;;;4997037;28;20034;-82
2022/12/22 13:16:07;;;;;;;4.13;2.10;;;17.00;99.90;;;;;;4986033;28;20023;-79
2022/12/22 13:18:32;;;;;;;4.40;1.70;;;17.00;99.90;;;;;;4981968;28;20039;-78
2022/12/22 13:21:05;;;;;;;3.58;2.03;;;17.00;99.90;;;;;;5002349;28;20022;-78
2022/12/22 13:23:53;;;;;;;3.97;1.88;;;17.00;99.90;;;;;;5002694;28;20403;-78
2022/12/22 13:26:32;;;;;;;2.83;1.90;;;16.90;99.90;;;;;;4999041;28;20052;-77
2022/12/22 13:29:08;;;;;;;6.05;1.95;;;16.90;99.90;;;;;;5001722;28;20026;-78
2022/12/22 13:31:41;;;;;;;5.28;1.70;;;17.00;99.90;;;;;;5000444;28;20033;-78
2022/12/22 13:34:16;;;;;;;5.68;3.33;;;17.00;99.90;;;;;;5001977;28;20023;-77
2022/12/22 13:36:42;;;;;;;5.22;3.30;;;17.10;99.90;;;;;;5002412;28;20526;-77
2022/12/22 13:39:14;;;;;;;4.35;1.83;;;17.10;99.90;;;;;;4998211;28;20029;-77
2022/12/22 13:41:48;;;;;;;4.65;1.70;;;17.10;99.90;;;;;;5000741;28;20498;-77
2022/12/22 13:44:24;;;;;;;5.90;1.80;;;17.10;99.90;;;;;;5008472;28;20042;-77
2022/12/22 13:46:50;;;;;;;3.92;1.65;;;17.20;99.90;;;;;;5000382;28;20085;-77
2022/12/22 13:49:18;;;;;;;6.93;2.35;;;17.20;99.90;;;;;;5004115;28;20033;-77
2022/12/22 13:51:46;;;;;;;5.20;2.10;;;17.20;99.90;;;;;;4994336;28;20033;-77
2022/12/22 13:54:36;;;;;;;3.00;1.88;;;17.20;99.90;;;;;;5006122;28;20030;-77
2022/12/22 13:57:04;;;;;;;5.18;2.42;;;17.30;99.90;;;;;;4996853;28;20517;-77
2022/12/22 13:59:41;;;;;;;5.85;2.22;;;17.40;99.90;;;;;;4997034;28;20034;-77
2022/12/22 14:02:07;;;;;;;8.73;2.45;;;17.40;99.90;;;;;;5001583;28;20029;-77
2022/12/22 14:04:38;;;;;;;4.10;1.85;;;17.40;99.90;;;;;;5001220;28;20097;-77
2022/12/22 14:07:15;;;;;;;3.58;1.80;;;17.40;99.90;;;;;;4998367;28;20022;-77
2022/12/22 14:09:45;;;;;;;3.95;2.17;;;17.40;99.90;;;;;;4999771;28;20034;-78
2022/12/22 14:12:20;;;;;;;7.88;2.72;;;17.40;99.90;;;;;;4998669;28;20034;-77
2022/12/22 14:14:48;;;;;;;4.65;1.85;;;17.30;99.90;;;;;;4988377;28;20696;-78
2022/12/22 14:17:24;;;;;;;3.10;2.13;;;17.30;99.90;;;;;;4999583;28;20011;-77
2022/12/22 14:19:54;;;;;;;3.10;1.70;;;17.10;99.90;;;;;;5003784;28;20035;-77
2022/12/22 14:22:32;;;;;;;4.75;2.42;;;17.00;99.90;;;;;;4999268;28;20031;-77
2022/12/22 14:25:21;;;;;;;7.82;1.80;;;16.90;99.90;;;;;;4958775;28;1302456;-77
2022/12/22 14:27:51;;;;;;;5.05;1.50;;;16.90;99.90;;;;;;5026975;28;20524;-77
2022/12/22 14:30:31;;;;;;;2.88;1.65;;;16.70;99.90;;;;;;5001222;28;20034;-77
2022/12/22 14:33:12;;;;;;;7.70;2.22;;;16.60;99.90;;;;;;4998138;28;20037;-76
2022/12/22 14:35:38;;;;;;;3.95;1.92;;;16.40;99.90;;;;;;5024640;28;20017;-77
2022/12/22 14:38:04;;;;;;;2.83;1.73;;;16.40;99.90;;;;;;5016129;28;20038;-77
2022/12/22 14:40:34;;;;;;;3.88;1.73;;;16.30;99.90;;;;;;5017697;28;20032;-77
2022/12/22 14:43:03;;;;;;;5.30;2.70;;;16.30;99.90;;;;;;5011913;28;20040;-77
2022/12/22 14:45:29;;;;;;;6.15;2.03;;;16.30;99.90;;;;;;5015044;28;20390;-77
2022/12/22 14:47:56;;;;;;;6.70;1.90;;;16.30;99.90;;;;;;5000999;28;20037;-78
2022/12/22 14:50:25;;;;;;;5.20;2.25;;;16.40;99.90;;;;;;5014467;28;20026;-77
2022/12/22 14:53:00;;;;;;;6.95;2.50;;;16.30;99.90;;;;;;5000552;28;20378;-78
2022/12/22 14:55:40;;;;;;;4.30;1.92;;;16.20;99.90;;;;;;5002745;28;20568;-78
2022/12/22 14:58:09;;;;;;;5.72;2.20;;;16.20;99.90;;;;;;5002115;28;20446;-78
2022/12/22 15:00:46;;;;;;;9.55;2.13;;;16.10;99.90;;;;;;5017939;28;20397;-78
2022/12/22 15:03:35;;;;;;;10.90;2.20;;;16.00;99.90;;;;;;5002980;28;20037;-78
2022/12/22 15:06:25;;;;;;;15.02;2.80;;;15.90;99.90;;;;;;5016848;28;20516;-78
2022/12/22 15:08:54;;;;;;;9.05;2.60;;;15.80;99.90;;;;;;5020199;28;20058;-78
2022/12/22 15:11:22;;;;;;;4.82;2.38;;;15.80;99.90;;;;;;5016018;28;20052;-79
2022/12/22 15:13:50;;;;;;;6.53;2.17;;;15.70;99.90;;;;;;5023571;28;20033;-79
2022/12/22 15:16:21;;;;;;;7.38;2.50;;;15.60;99.90;;;;;;5022746;28;20094;-79
2022/12/22 15:18:48;;;;;;;4.30;1.88;;;15.60;99.90;;;;;;5016747;28;20056;-78
2022/12/22 15:21:16;;;;;;;5.47;2.08;;;15.50;99.90;;;;;;5023825;28;20132;-77
2022/12/22 15:23:42;;;;;;;4.05;1.88;;;15.40;99.90;;;;;;5001533;28;20034;-78
2022/12/22 15:26:09;;;;;;;2.90;1.98;;;15.30;99.90;;;;;;5022389;28;20050;-79
2022/12/22 15:28:35;;;;;;;9.13;1.95;;;15.30;99.90;;;;;;5018238;28;20033;-78
2022/12/22 15:31:02;;;;;;;3.63;1.98;;;15.30;99.90;;;;;;5023735;28;20026;-78
2022/12/22 15:33:29;;;;;;;5.75;2.00;;;15.20;99.90;;;;;;5013949;28;20061;-78
2022/12/22 15:35:55;;;;;;;5.00;2.33;;;15.20;99.90;;;;;;5016239;28;20021;-78
2022/12/22 15:38:24;;;;;;;7.18;2.55;;;15.10;99.90;;;;;;5011684;28;20026;-79
2022/12/22 15:40:50;;;;;;;4.88;2.45;;;15.00;99.90;;;;;;5024665;28;20025;-79
2022/12/22 15:43:17;;;;;;;6.60;2.42;;;15.00;99.90;;;;;;5009606;28;20022;-79
2022/12/22 15:45:43;;;;;;;6.97;3.13;;;14.90;99.90;;;;;;4997369;28;20030;-78
2022/12/22 15:48:16;;;;;;;6.00;2.85;;;14.80;99.90;;;;;;5011210;28;20026;-78
2022/12/22 15:50:43;;;;;;;5.18;2.75;;;14.80;99.90;;;;;;5021257;28;20030;-78
2022/12/22 15:53:15;;;;;;;5.93;3.35;;;14.80;99.90;;;;;;4997674;28;20167;-78
2022/12/22 15:55:44;;;;;;;5.72;2.83;;;14.70;99.90;;;;;;5022879;28;20033;-77
2022/12/22 15:58:14;;;;;;;6.50;3.58;;;14.70;99.90;;;;;;5004645;28;20022;-77
2022/12/22 16:00:40;;;;;;;3.45;2.33;;;14.60;99.90;;;;;;5015263;28;20025;-77
2022/12/22 16:03:06;;;;;;;5.53;2.60;;;14.60;99.90;;;;;;5020854;28;20105;-77
2022/12/22 16:05:33;;;;;;;5.82;2.78;;;14.60;99.90;;;;;;5012069;28;20026;-78
2022/12/22 16:08:00;;;;;;;8.35;2.78;;;14.60;99.90;;;;;;5003778;28;20056;-78
2022/12/22 16:10:28;;;;;;;8.18;2.70;;;14.50;99.90;;;;;;5018918;28;20025;-78
2022/12/22 16:12:59;;;;;;;6.57;3.08;;;14.50;99.90;;;;;;5016130;28;20037;-78
2022/12/22 16:15:30;;;;;;;6.25;2.60;;;14.50;99.90;;;;;;5023615;28;20443;-78
2022/12/22 16:18:00;;;;;;;4.03;2.50;;;14.40;99.90;;;;;;5021847;28;20030;-78
2022/12/22 16:20:29;;;;;;;5.20;2.90;;;14.40;99.90;;;;;;5000824;28;20022;-78
2022/12/22 16:22:56;;;;;;;6.20;3.20;;;14.40;99.90;;;;;;4997868;28;20029;-78
2022/12/22 16:25:30;;;;;;;6.60;3.42;;;14.40;99.90;;;;;;5015099;28;20042;-78
2022/12/22 16:27:56;;;;;;;8.20;4.32;;;14.40;99.90;;;;;;5021903;28;20065;-77
2022/12/22 16:30:24;;;;;;;7.25;3.13;;;14.50;99.90;;;;;;5019606;28;20018;-77
2022/12/22 16:32:51;;;;;;;8.77;3.70;;;15.00;99.90;;;;;;5015793;28;20113;-77
2022/12/22 16:35:22;;;;;;;4.85;2.90;;;15.60;99.90;;;;;;5002675;28;20029;-77
2022/12/22 16:37:49;;;;;;;6.85;2.42;;;15.90;99.90;;;;;;4995930;28;20030;-78
2022/12/22 16:40:18;;;;;;;5.95;2.53;;;16.10;99.90;;;;;;5001928;28;20041;-77
2022/12/22 16:42:49;;;;;;;6.40;3.33;;;16.20;99.90;;;;;;5010056;28;20030;-77